createdAt,value
2023-01-22T00:02:05.757Z,5.82
2023-01-22T00:06:07.572Z,5.60
2023-01-22T00:10:10.838Z,4.93
2023-01-22T00:14:12.271Z,4.82
2023-01-22T00:18:14.050Z,5.68
2023-01-22T00:22:15.483Z,7.95
2023-01-22T00:26:17.631Z,5.22
2023-01-22T00:30:19.628Z,5.53
2023-01-22T00:34:21.328Z,5.32
2023-01-22T00:38:22.841Z,6.18
2023-01-22T00:42:24.305Z,6.57
2023-01-22T00:46:25.762Z,5.72
2023-01-22T00:50:27.599Z,5.82
2023-01-22T00:54:30.178Z,8.60
2023-01-22T00:58:31.785Z,9.98
2023-01-22T01:02:33.269Z,11.85
2023-01-22T01:06:34.700Z,8.63
2023-01-22T01:10:36.253Z,5.30
2023-01-22T01:14:37.728Z,8.13
2023-01-22T01:18:39.225Z,6.82
2023-01-22T01:22:40.654Z,8.48
2023-01-22T01:26:42.128Z,6.95
2023-01-22T01:30:44.650Z,9.38
2023-01-22T01:34:47.889Z,7.47
2023-01-22T01:38:51.327Z,8.85
2023-01-22T01:42:52.743Z,12.65
2023-01-22T01:47:00.255Z,7.00
2023-01-22T01:51:11.899Z,7.78
2023-01-22T01:55:15.067Z,8.05
2023-01-22T01:59:19.827Z,8.35
2023-01-22T02:03:22.016Z,11.98
2023-01-22T02:07:23.448Z,8.48
2023-01-22T02:11:25.235Z,6.28
2023-01-22T02:15:27.453Z,8.00
2023-01-22T02:19:28.895Z,6.45
2023-01-22T02:23:31.769Z,8.48
2023-01-22T02:27:33.503Z,6.53
2023-01-22T02:31:37.177Z,5.57
2023-01-22T02:35:38.690Z,9.25
2023-01-22T02:39:40.267Z,10.95
2023-01-22T02:43:41.761Z,7.55
2023-01-22T02:47:43.181Z,7.63
2023-01-22T02:51:44.643Z,7.78
2023-01-22T02:55:47.087Z,6.60
2023-01-22T02:59:49.114Z,9.30
2023-01-22T03:03:56.089Z,7.68
2023-01-22T03:07:57.539Z,7.63
2023-01-22T03:11:59.100Z,7.20
2023-01-22T03:16:22.087Z,6.53
2023-01-22T03:20:42.123Z,5.80
2023-01-22T03:24:44.749Z,10.43
2023-01-22T03:28:46.203Z,7.05
2023-01-22T03:32:48.447Z,7.53
2023-01-22T03:36:49.885Z,6.50
2023-01-22T03:40:51.353Z,7.72
2023-01-22T03:44:53.962Z,6.22
2023-01-22T03:48:55.927Z,6.57
2023-01-22T03:52:58.288Z,5.63
2023-01-22T03:56:59.781Z,7.72
2023-01-22T04:01:03.793Z,8.07
2023-01-22T04:05:06.339Z,6.03
2023-01-22T04:09:07.857Z,5.35
2023-01-22T04:13:09.381Z,6.50
2023-01-22T04:17:10.972Z,6.57
2023-01-22T04:21:12.953Z,5.43
2023-01-22T04:25:14.489Z,8.05
2023-01-22T04:29:16.057Z,5.15
2023-01-22T04:33:17.650Z,5.72
2023-01-22T04:37:19.097Z,7.30
2023-01-22T04:41:23.324Z,6.85
2023-01-22T04:45:24.782Z,7.55
2023-01-22T04:49:26.263Z,7.68
2023-01-22T04:53:27.704Z,6.55
2023-01-22T04:57:29.174Z,8.05
2023-01-22T05:01:30.664Z,8.30
2023-01-22T05:05:33.330Z,7.93
2023-01-22T05:09:34.782Z,6.95
2023-01-22T05:13:36.249Z,9.90
2023-01-22T05:17:37.794Z,9.45
2023-01-22T05:21:39.271Z,7.10
2023-01-22T05:25:40.742Z,7.55
2023-01-22T05:29:42.314Z,7.40
2023-01-22T05:33:44.249Z,6.45
2023-01-22T05:37:45.702Z,9.60
2023-01-22T05:41:47.187Z,12.68
2023-01-22T05:45:48.739Z,8.38
2023-01-22T05:49:50.227Z,10.77
2023-01-22T05:53:51.690Z,9.45
2023-01-22T05:57:53.171Z,8.48
2023-01-22T06:01:54.672Z,10.18
2023-01-22T06:06:15.126Z,11.18
2023-01-22T06:10:17.516Z,9.82
2023-01-22T06:14:19.469Z,8.45
2023-01-22T06:18:22.463Z,10.82
2023-01-22T06:22:23.937Z,9.25
2023-01-22T06:26:25.398Z,9.65
2023-01-22T06:30:26.916Z,10.40
2023-01-22T06:34:28.403Z,12.60
2023-01-22T06:38:30.743Z,10.63
2023-01-22T06:42:32.214Z,12.57
2023-01-22T06:46:33.796Z,10.45
2023-01-22T06:50:35.281Z,13.23
2023-01-22T06:54:36.713Z,10.23
2023-01-22T06:58:38.185Z,10.45
2023-01-22T07:02:41.047Z,13.77
2023-01-22T07:06:42.689Z,8.95
2023-01-22T07:10:44.275Z,12.50
2023-01-22T07:14:45.703Z,12.57
2023-01-22T07:18:47.136Z,10.82
2023-01-22T07:22:48.641Z,11.18
2023-01-22T07:26:50.120Z,10.50
2023-01-22T07:30:51.665Z,10.20
2023-01-22T07:34:53.160Z,14.30
2023-01-22T07:38:54.668Z,12.63
2023-01-22T07:42:56.478Z,13.32
2023-01-22T07:46:58.085Z,11.70
2023-01-22T07:51:00.745Z,14.98
2023-01-22T07:55:02.263Z,12.93
2023-01-22T07:59:03.733Z,13.68
2023-01-22T08:03:05.871Z,11.70
2023-01-22T08:07:14.523Z,12.65
2023-01-22T08:11:16.169Z,11.02
2023-01-22T08:15:17.692Z,13.13
2023-01-22T08:19:19.208Z,11.27
2023-01-22T08:23:21.927Z,10.98
2023-01-22T08:27:23.768Z,10.57
2023-01-22T08:31:28.348Z,11.70
2023-01-22T08:35:30.750Z,9.20
2023-01-22T08:39:32.303Z,10.07
2023-01-22T08:43:33.765Z,10.88
2023-01-22T08:47:35.316Z,11.85
2023-01-22T08:51:36.909Z,12.07
2023-01-22T08:55:38.362Z,13.27
2023-01-22T08:59:41.573Z,12.57
2023-01-22T09:03:44.937Z,11.80
2023-01-22T09:07:46.479Z,11.13
2023-01-22T09:11:47.975Z,14.82
2023-01-22T09:15:49.514Z,13.07
2023-01-22T09:19:50.932Z,11.57
2023-01-22T09:23:53.591Z,10.65
2023-01-22T09:27:59.970Z,11.10
2023-01-22T09:32:01.605Z,12.13
2023-01-22T09:36:08.343Z,11.90
2023-01-22T09:40:26.148Z,15.73
2023-01-22T09:44:37.581Z,12.32
2023-01-22T09:48:46.113Z,12.80
2023-01-22T09:52:51.493Z,14.00
2023-01-22T09:56:56.738Z,15.80
2023-01-22T10:01:04.355Z,15.13
2023-01-22T10:05:42.932Z,11.52
2023-01-22T10:09:55.455Z,13.80
2023-01-22T10:14:00.037Z,13.35
2023-01-22T10:18:12.442Z,13.82
2023-01-22T10:22:22.223Z,12.40
2023-01-22T10:26:43.131Z,12.13
2023-01-22T10:30:47.173Z,14.35
2023-01-22T10:35:18.683Z,19.60
2023-01-22T10:39:23.546Z,12.85
2023-01-22T10:43:36.139Z,13.25
2023-01-22T10:47:37.604Z,10.82
2023-01-22T10:51:43.758Z,11.80
2023-01-22T10:55:55.503Z,14.60
2023-01-22T11:00:17.873Z,16.70
2023-01-22T11:04:29.536Z,16.80
2023-01-22T11:08:43.433Z,16.30
2023-01-22T11:12:54.497Z,15.40
2023-01-22T11:17:01.216Z,14.98
2023-01-22T11:21:10.697Z,15.02
2023-01-22T11:25:12.302Z,13.73
2023-01-22T11:29:38.946Z,13.35
2023-01-22T11:34:26.387Z,14.77
2023-01-22T11:39:03.371Z,11.77
2023-01-22T11:43:26.246Z,9.77
2023-01-22T11:47:39.676Z,12.15
2023-01-22T11:51:44.227Z,13.00
2023-01-22T11:56:13.469Z,11.82
2023-01-22T12:00:41.306Z,14.27
2023-01-22T12:05:00.852Z,13.07
2023-01-22T12:09:18.881Z,12.37
2023-01-22T12:13:51.228Z,10.00
2023-01-22T12:18:25.614Z,13.15
2023-01-22T12:22:35.931Z,11.18
2023-01-22T12:26:43.179Z,12.00
2023-01-22T12:31:00.165Z,10.43
2023-01-22T12:35:06.219Z,13.25
2023-01-22T12:39:21.856Z,12.13
2023-01-22T12:43:34.618Z,10.30
2023-01-22T12:47:40.698Z,13.30
2023-01-22T12:51:53.628Z,15.43
2023-01-22T12:55:59.802Z,12.70
2023-01-22T13:00:12.762Z,13.57
2023-01-22T13:04:14.880Z,10.15
2023-01-22T13:08:16.380Z,11.27
2023-01-22T13:12:29.728Z,13.43
2023-01-22T13:16:35.049Z,13.77
2023-01-22T13:20:46.670Z,12.75
2023-01-22T13:24:58.866Z,14.32
2023-01-22T13:29:04.105Z,14.10
2023-01-22T13:33:14.899Z,15.77
2023-01-22T13:37:27.432Z,13.70
2023-01-22T13:41:32.249Z,12.77
2023-01-22T13:45:34.111Z,14.77
2023-01-22T13:49:42.602Z,17.08
2023-01-22T13:53:54.685Z,17.52
2023-01-22T13:57:59.063Z,20.17
2023-01-22T14:02:21.000Z,15.88
2023-01-22T14:06:22.556Z,18.52
2023-01-22T14:10:25.142Z,14.50
2023-01-22T14:14:27.314Z,19.08
2023-01-22T14:18:29.545Z,24.10
2023-01-22T14:22:31.064Z,18.05
2023-01-22T14:26:32.717Z,16.42
2023-01-22T14:30:34.676Z,18.83
2023-01-22T14:34:36.121Z,17.98
2023-01-22T14:38:37.701Z,19.42
2023-01-22T14:42:39.466Z,16.23
2023-01-22T14:46:42.006Z,22.63
2023-01-22T14:50:43.834Z,17.27
2023-01-22T14:54:45.265Z,19.13
2023-01-22T14:58:49.487Z,17.38
2023-01-22T15:02:55.609Z,18.05
2023-01-22T15:06:57.499Z,19.65
2023-01-22T15:11:02.740Z,19.80
2023-01-22T15:15:06.190Z,23.80
2023-01-22T15:19:07.611Z,19.52
2023-01-22T15:23:09.110Z,21.52
2023-01-22T15:27:11.216Z,21.65
2023-01-22T15:31:12.692Z,25.02
2023-01-22T15:35:14.405Z,16.40
2023-01-22T15:39:16.604Z,23.38
2023-01-22T15:43:21.103Z,24.13
2023-01-22T15:47:22.591Z,21.80
2023-01-22T15:51:24.238Z,25.20
2023-01-22T15:55:26.919Z,20.23
2023-01-22T15:59:28.812Z,25.08
2023-01-22T16:03:30.375Z,25.08
2023-01-22T16:07:31.897Z,26.05
2023-01-22T16:11:34.481Z,22.95
2023-01-22T16:15:35.937Z,23.63
2023-01-22T16:19:37.449Z,22.25
2023-01-22T16:23:41.986Z,25.23
2023-01-22T16:27:44.797Z,28.08
2023-01-22T16:31:46.530Z,24.45
2023-01-22T16:35:48.081Z,28.40
2023-01-22T16:39:55.513Z,23.45
2023-01-22T16:43:59.174Z,31.42
2023-01-22T16:48:01.522Z,25.35
2023-01-22T16:52:20.836Z,28.92
2023-01-22T16:56:23.222Z,21.50
2023-01-22T17:00:24.678Z,26.38
2023-01-22T17:04:26.480Z,22.38
2023-01-22T17:08:28.189Z,28.50
2023-01-22T17:12:29.894Z,22.67
2023-01-22T17:16:31.313Z,19.95
2023-01-22T17:20:32.764Z,24.77
2023-01-22T17:24:37.138Z,28.02
2023-01-22T17:28:39.543Z,23.52
2023-01-22T17:32:41.001Z,21.52
2023-01-22T17:36:43.232Z,29.15
2023-01-22T17:40:44.717Z,27.48
2023-01-22T17:44:46.444Z,26.60
2023-01-22T17:48:49.238Z,26.58
2023-01-22T17:52:55.738Z,20.40
2023-01-22T17:56:57.277Z,20.58
2023-01-22T18:01:13.738Z,22.50
2023-01-22T18:05:15.681Z,20.98
2023-01-22T18:09:17.319Z,24.85
2023-01-22T18:13:18.788Z,26.05
2023-01-22T18:17:20.272Z,17.73
2023-01-22T18:21:23.099Z,22.55
2023-01-22T18:25:24.718Z,21.95
2023-01-22T18:29:28.759Z,25.45
2023-01-22T18:33:30.562Z,16.65
2023-01-22T18:37:33.719Z,20.88
2023-01-22T18:41:36.456Z,22.23
2023-01-22T18:45:41.753Z,19.25
2023-01-22T18:49:43.288Z,21.90
2023-01-22T18:53:45.237Z,21.95
2023-01-22T18:57:52.106Z,21.30
2023-01-22T19:01:53.680Z,20.58
2023-01-22T19:05:55.310Z,19.90
2023-01-22T19:09:57.147Z,24.20
2023-01-22T19:14:00.176Z,17.48
2023-01-22T19:18:02.005Z,21.13
2023-01-22T19:22:04.045Z,17.38
2023-01-22T19:26:08.498Z,18.38
2023-01-22T19:30:10.858Z,20.67
2023-01-22T19:34:16.225Z,22.88
2023-01-22T19:38:17.699Z,17.50
2023-01-22T19:42:19.231Z,20.17
2023-01-22T19:46:21.200Z,21.33
2023-01-22T19:50:25.193Z,18.40
2023-01-22T19:54:26.781Z,21.08
2023-01-22T19:58:28.365Z,19.52
2023-01-22T20:02:29.869Z,20.23
2023-01-22T20:06:31.381Z,17.90
2023-01-22T20:10:32.970Z,21.95
2023-01-22T20:14:43.424Z,19.65
2023-01-22T20:18:45.136Z,21.05
2023-01-22T20:22:46.575Z,18.63
2023-01-22T20:26:48.035Z,19.25
2023-01-22T20:31:01.349Z,15.55
2023-01-22T20:35:11.688Z,20.23
2023-01-22T20:39:13.502Z,15.73
2023-01-22T20:43:17.101Z,20.40
2023-01-22T20:47:18.632Z,18.42
2023-01-22T20:51:24.495Z,18.75
2023-01-22T20:55:26.205Z,21.70
2023-01-22T20:59:28.684Z,18.52
2023-01-22T21:03:30.969Z,23.13
2023-01-22T21:07:32.595Z,22.35
2023-01-22T21:11:35.722Z,19.67
2023-01-22T21:15:37.283Z,21.48
2023-01-22T21:19:38.804Z,26.13
2023-01-22T21:23:40.918Z,18.73
2023-01-22T21:27:42.500Z,20.70
2023-01-22T21:31:45.072Z,21.08
2023-01-22T21:35:50.237Z,24.40
2023-01-22T21:39:51.802Z,26.25
2023-01-22T21:44:11.876Z,24.13
2023-01-22T21:48:13.416Z,22.95
2023-01-22T21:52:14.838Z,22.67
2023-01-22T21:56:16.329Z,20.95
2023-01-22T22:00:19.598Z,24.98
2023-01-22T22:04:26.563Z,24.42
2023-01-22T22:08:29.264Z,27.35
2023-01-22T22:12:33.575Z,25.67
2023-01-22T22:16:35.061Z,22.10
2023-01-22T22:20:37.451Z,24.83
2023-01-22T22:24:38.915Z,19.98
2023-01-22T22:28:40.454Z,21.65
2023-01-22T22:32:41.911Z,21.40
2023-01-22T22:36:43.391Z,26.25
2023-01-22T22:40:44.850Z,23.08
2023-01-22T22:44:46.288Z,24.73
2023-01-22T22:48:48.665Z,21.88
2023-01-22T22:52:50.078Z,25.05
2023-01-22T22:56:52.760Z,25.27
2023-01-22T23:00:54.152Z,20.42
2023-01-22T23:04:55.620Z,20.38
2023-01-22T23:08:58.154Z,20.48
2023-01-22T23:13:01.769Z,25.17
2023-01-22T23:17:04.659Z,23.70
2023-01-22T23:21:11.814Z,25.85
2023-01-22T23:25:13.368Z,20.70
2023-01-22T23:29:18.637Z,26.55
2023-01-22T23:33:20.192Z,20.35
2023-01-22T23:37:21.650Z,24.80
2023-01-22T23:41:23.282Z,22.92
2023-01-22T23:45:24.812Z,19.25
2023-01-22T23:49:26.278Z,22.23
2023-01-22T23:53:27.738Z,22.25
2023-01-22T23:57:29.197Z,29.38
